sensor_id;sensor_type;location;lat;lon;timestamp;P1;durP1;ratioP1;P2;durP2;ratioP2
13075;SDS011;6604;52.484;13.330;2022-09-17T07:48:32;12.53;;;2.20;;
13075;SDS011;6604;52.484;13.330;2022-09-17T07:50:59;14.43;;;3.07;;
13075;SDS011;6604;52.484;13.330;2022-09-17T07:53:26;14.00;;;2.40;;
13075;SDS011;6604;52.484;13.330;2022-09-17T07:55:52;8.57;;;2.60;;
13075;SDS011;6604;52.484;13.330;2022-09-17T07:58:19;13.07;;;2.43;;
13075;SDS011;6604;52.484;13.330;2022-09-17T08:00:46;12.20;;;2.60;;
13075;SDS011;6604;52.484;13.330;2022-09-17T08:03:13;8.43;;;2.40;;
13075;SDS011;6604;52.484;13.330;2022-09-17T08:05:40;17.13;;;2.60;;
13075;SDS011;6604;52.484;13.330;2022-09-17T08:08:07;12.43;;;2.50;;
13075;SDS011;6604;52.484;13.330;2022-09-17T08:10:33;5.73;;;2.30;;
13075;SDS011;6604;52.484;13.330;2022-09-17T08:13:00;10.10;;;2.40;;
13075;SDS011;6604;52.484;13.330;2022-09-17T08:15:26;10.80;;;2.70;;
13075;SDS011;6604;52.484;13.330;2022-09-17T08:17:53;8.37;;;2.30;;
13075;SDS011;6604;52.484;13.330;2022-09-17T08:20:19;11.03;;;3.17;;
13075;SDS011;6604;52.484;13.330;2022-09-17T08:22:49;10.13;;;2.73;;
13075;SDS011;6604;52.484;13.330;2022-09-17T08:25:16;7.33;;;1.90;;
13075;SDS011;6604;52.484;13.330;2022-09-17T08:27:42;10.90;;;2.43;;
13075;SDS011;6604;52.484;13.330;2022-09-17T08:30:09;8.37;;;2.10;;
13075;SDS011;6604;52.484;13.330;2022-09-17T08:32:35;5.20;;;2.13;;
13075;SDS011;6604;52.484;13.330;2022-09-17T08:35:02;7.63;;;2.60;;
13075;SDS011;6604;52.484;13.330;2022-09-17T08:37:28;6.07;;;2.10;;
13075;SDS011;6604;52.484;13.330;2022-09-17T08:39:56;8.30;;;2.03;;
13075;SDS011;6604;52.484;13.330;2022-09-17T08:42:24;9.60;;;2.20;;
13075;SDS011;6604;52.484;13.330;2022-09-17T08:44:53;5.20;;;2.00;;
13075;SDS011;6604;52.484;13.330;2022-09-17T08:47:21;6.57;;;2.47;;
13075;SDS011;6604;52.484;13.330;2022-09-17T08:49:50;8.93;;;1.90;;
13075;SDS011;6604;52.484;13.330;2022-09-17T08:52:29;8.60;;;1.93;;
13075;SDS011;6604;52.484;13.330;2022-09-17T08:54:59;8.20;;;1.77;;
13075;SDS011;6604;52.484;13.330;2022-09-17T08:57:30;10.57;;;2.17;;
13075;SDS011;6604;52.484;13.330;2022-09-17T08:59:58;5.07;;;1.73;;
13075;SDS011;6604;52.484;13.330;2022-09-17T09:02:31;6.60;;;2.13;;
13075;SDS011;6604;52.484;13.330;2022-09-17T09:05:02;6.67;;;1.93;;
13075;SDS011;6604;52.484;13.330;2022-09-17T09:07:31;6.47;;;1.80;;
13075;SDS011;6604;52.484;13.330;2022-09-17T09:10:05;8.57;;;2.40;;
13075;SDS011;6604;52.484;13.330;2022-09-17T09:12:35;5.97;;;2.00;;
13075;SDS011;6604;52.484;13.330;2022-09-17T09:15:03;9.30;;;2.10;;
13075;SDS011;6604;52.484;13.330;2022-09-17T09:17:31;10.03;;;2.30;;
13075;SDS011;6604;52.484;13.330;2022-09-17T09:20:00;7.77;;;2.03;;
13075;SDS011;6604;52.484;13.330;2022-09-17T09:22:38;8.53;;;1.70;;
13075;SDS011;6604;52.484;13.330;2022-09-17T09:25:11;6.57;;;2.00;;
13075;SDS011;6604;52.484;13.330;2022-09-17T09:27:39;7.57;;;1.83;;
13075;SDS011;6604;52.484;13.330;2022-09-17T09:30:08;8.70;;;1.90;;
13075;SDS011;6604;52.484;13.330;2022-09-17T09:32:39;11.27;;;2.40;;
13075;SDS011;6604;52.484;13.330;2022-09-17T09:35:15;11.70;;;2.27;;
13075;SDS011;6604;52.484;13.330;2022-09-17T09:37:42;5.37;;;1.70;;
13075;SDS011;6604;52.484;13.330;2022-09-17T09:40:18;9.60;;;2.13;;
13075;SDS011;6604;52.484;13.330;2022-09-17T09:42:48;11.87;;;2.23;;
13075;SDS011;6604;52.484;13.330;2022-09-17T09:45:15;9.57;;;2.33;;
13075;SDS011;6604;52.484;13.330;2022-09-17T09:47:46;8.50;;;1.97;;
13075;SDS011;6604;52.484;13.330;2022-09-17T09:53:02;7.47;;;1.73;;
13075;SDS011;6604;52.484;13.330;2022-09-17T09:55:38;7.43;;;1.97;;
13075;SDS011;6604;52.484;13.330;2022-09-17T09:58:09;7.87;;;2.27;;
13075;SDS011;6604;52.484;13.330;2022-09-17T10:00:38;8.23;;;1.90;;
13075;SDS011;6604;52.484;13.330;2022-09-17T10:03:08;9.37;;;1.97;;
13075;SDS011;6604;52.484;13.330;2022-09-17T10:05:36;5.43;;;2.00;;
13075;SDS011;6604;52.484;13.330;2022-09-17T10:08:09;5.83;;;1.73;;
13075;SDS011;6604;52.484;13.330;2022-09-17T10:10:38;8.23;;;2.03;;
13075;SDS011;6604;52.484;13.330;2022-09-17T10:13:18;6.63;;;1.73;;
13075;SDS011;6604;52.484;13.330;2022-09-17T10:15:45;7.00;;;1.90;;
13075;SDS011;6604;52.484;13.330;2022-09-17T10:18:13;7.67;;;1.97;;
13075;SDS011;6604;52.484;13.330;2022-09-17T10:20:51;9.17;;;3.30;;
13075;SDS011;6604;52.484;13.330;2022-09-17T10:23:17;7.07;;;2.07;;
13075;SDS011;6604;52.484;13.330;2022-09-17T10:25:45;6.10;;;1.70;;
13075;SDS011;6604;52.484;13.330;2022-09-17T10:28:27;4.40;;;1.43;;
13075;SDS011;6604;52.484;13.330;2022-09-17T10:30:55;7.20;;;2.00;;
13075;SDS011;6604;52.484;13.330;2022-09-17T10:33:22;4.73;;;1.50;;
13075;SDS011;6604;52.484;13.330;2022-09-17T10:35:55;8.90;;;1.70;;
13075;SDS011;6604;52.484;13.330;2022-09-17T10:38:26;9.03;;;2.23;;
13075;SDS011;6604;52.484;13.330;2022-09-17T10:40:54;9.43;;;1.90;;
13075;SDS011;6604;52.484;13.330;2022-09-17T10:43:32;5.97;;;1.53;;
13075;SDS011;6604;52.484;13.330;2022-09-17T10:45:58;8.97;;;2.00;;
13075;SDS011;6604;52.484;13.330;2022-09-17T10:48:26;7.40;;;1.63;;
13075;SDS011;6604;52.484;13.330;2022-09-17T10:50:54;6.50;;;1.53;;
13075;SDS011;6604;52.484;13.330;2022-09-17T10:53:21;10.87;;;1.93;;
13075;SDS011;6604;52.484;13.330;2022-09-17T10:55:49;8.77;;;2.27;;
13075;SDS011;6604;52.484;13.330;2022-09-17T10:58:22;8.87;;;1.90;;
13075;SDS011;6604;52.484;13.330;2022-09-17T11:00:53;10.23;;;2.30;;
13075;SDS011;6604;52.484;13.330;2022-09-17T11:03:29;7.03;;;1.90;;
13075;SDS011;6604;52.484;13.330;2022-09-17T11:06:06;7.90;;;1.87;;
13075;SDS011;6604;52.484;13.330;2022-09-17T11:08:40;6.87;;;1.40;;
13075;SDS011;6604;52.484;13.330;2022-09-17T11:11:10;5.83;;;1.53;;
13075;SDS011;6604;52.484;13.330;2022-09-17T11:13:40;6.97;;;1.87;;
13075;SDS011;6604;52.484;13.330;2022-09-17T11:16:10;6.83;;;1.50;;
13075;SDS011;6604;52.484;13.330;2022-09-17T11:18:40;5.23;;;1.60;;
13075;SDS011;6604;52.484;13.330;2022-09-17T11:21:15;9.37;;;1.90;;
13075;SDS011;6604;52.484;13.330;2022-09-17T11:23:54;2.70;;;1.33;;
13075;SDS011;6604;52.484;13.330;2022-09-17T11:26:27;7.43;;;1.43;;
13075;SDS011;6604;52.484;13.330;2022-09-17T11:28:58;5.77;;;1.50;;
13075;SDS011;6604;52.484;13.330;2022-09-17T11:31:29;9.30;;;2.10;;
13075;SDS011;6604;52.484;13.330;2022-09-17T11:34:02;5.13;;;1.30;;
13075;SDS011;6604;52.484;13.330;2022-09-17T11:36:35;6.63;;;1.70;;
13075;SDS011;6604;52.484;13.330;2022-09-17T11:39:06;7.40;;;1.90;;
13075;SDS011;6604;52.484;13.330;2022-09-17T11:41:36;6.23;;;3.07;;
13075;SDS011;6604;52.484;13.330;2022-09-17T11:44:07;9.23;;;2.07;;
13075;SDS011;6604;52.484;13.330;2022-09-17T11:46:36;4.00;;;1.80;;
13075;SDS011;6604;52.484;13.330;2022-09-17T11:49:05;6.40;;;2.00;;
13075;SDS011;6604;52.484;13.330;2022-09-17T11:51:37;3.57;;;1.77;;
13075;SDS011;6604;52.484;13.330;2022-09-17T11:54:06;4.50;;;1.50;;
13075;SDS011;6604;52.484;13.330;2022-09-17T11:56:34;4.67;;;1.40;;
13075;SDS011;6604;52.484;13.330;2022-09-17T11:59:01;2.80;;;1.20;;
13075;SDS011;6604;52.484;13.330;2022-09-17T12:01:32;1.47;;;1.13;;
13075;SDS011;6604;52.484;13.330;2022-09-17T12:04:01;4.27;;;1.10;;
13075;SDS011;6604;52.484;13.330;2022-09-17T12:06:33;3.33;;;1.20;;
13075;SDS011;6604;52.484;13.330;2022-09-17T12:09:02;2.27;;;1.10;;
13075;SDS011;6604;52.484;13.330;2022-09-17T12:11:31;5.03;;;1.50;;
13075;SDS011;6604;52.484;13.330;2022-09-17T12:14:00;3.60;;;1.37;;
13075;SDS011;6604;52.484;13.330;2022-09-17T12:16:30;4.07;;;1.40;;
13075;SDS011;6604;52.484;13.330;2022-09-17T12:19:00;6.70;;;1.70;;
13075;SDS011;6604;52.484;13.330;2022-09-17T12:21:30;5.50;;;1.20;;
13075;SDS011;6604;52.484;13.330;2022-09-17T12:24:00;6.10;;;1.53;;
13075;SDS011;6604;52.484;13.330;2022-09-17T12:26:43;3.57;;;1.27;;
13075;SDS011;6604;52.484;13.330;2022-09-17T12:29:16;4.27;;;1.13;;
13075;SDS011;6604;52.484;13.330;2022-09-17T12:31:47;3.80;;;1.10;;
13075;SDS011;6604;52.484;13.330;2022-09-17T12:34:22;4.67;;;1.50;;
13075;SDS011;6604;52.484;13.330;2022-09-17T12:36:51;3.93;;;1.60;;
13075;SDS011;6604;52.484;13.330;2022-09-17T12:39:33;3.40;;;1.20;;
13075;SDS011;6604;52.484;13.330;2022-09-17T12:42:05;3.97;;;1.33;;
13075;SDS011;6604;52.484;13.330;2022-09-17T12:44:47;3.97;;;1.47;;
13075;SDS011;6604;52.484;13.330;2022-09-17T12:47:20;2.37;;;1.00;;
13075;SDS011;6604;52.484;13.330;2022-09-17T12:50:03;4.67;;;1.10;;
13075;SDS011;6604;52.484;13.330;2022-09-17T12:52:35;4.93;;;1.50;;
13075;SDS011;6604;52.484;13.330;2022-09-17T12:55:12;3.70;;;1.30;;
13075;SDS011;6604;52.484;13.330;2022-09-17T12:57:43;5.67;;;1.20;;
13075;SDS011;6604;52.484;13.330;2022-09-17T13:00:11;4.60;;;1.40;;
13075;SDS011;6604;52.484;13.330;2022-09-17T13:02:38;3.83;;;1.00;;
13075;SDS011;6604;52.484;13.330;2022-09-17T13:05:20;1.83;;;1.00;;
13075;SDS011;6604;52.484;13.330;2022-09-17T13:07:54;3.33;;;1.00;;
13075;SDS011;6604;52.484;13.330;2022-09-17T13:13:08;3.40;;;0.83;;
13075;SDS011;6604;52.484;13.330;2022-09-17T13:15:44;3.07;;;0.80;;
13075;SDS011;6604;52.484;13.330;2022-09-17T13:18:13;5.87;;;1.20;;
13075;SDS011;6604;52.484;13.330;2022-09-17T13:20:46;5.27;;;1.27;;
13075;SDS011;6604;52.484;13.330;2022-09-17T13:23:27;3.93;;;1.70;;
13075;SDS011;6604;52.484;13.330;2022-09-17T13:25:53;3.97;;;1.17;;
13075;SDS011;6604;52.484;13.330;2022-09-17T13:28:20;2.07;;;1.10;;
13075;SDS011;6604;52.484;13.330;2022-09-17T13:30:56;3.27;;;1.03;;
13075;SDS011;6604;52.484;13.330;2022-09-17T13:36:20;3.13;;;1.10;;
13075;SDS011;6604;52.484;13.330;2022-09-17T13:38:59;5.47;;;0.90;;
13075;SDS011;6604;52.484;13.330;2022-09-17T13:41:26;3.23;;;1.17;;
13075;SDS011;6604;52.484;13.330;2022-09-17T13:43:53;4.70;;;1.03;;
13075;SDS011;6604;52.484;13.330;2022-09-17T13:46:21;2.50;;;1.00;;
13075;SDS011;6604;52.484;13.330;2022-09-17T13:48:50;3.27;;;1.30;;
13075;SDS011;6604;52.484;13.330;2022-09-17T13:54:05;5.40;;;1.13;;
13075;SDS011;6604;52.484;13.330;2022-09-17T13:56:33;3.13;;;1.23;;
13075;SDS011;6604;52.484;13.330;2022-09-17T13:59:04;4.50;;;1.40;;
13075;SDS011;6604;52.484;13.330;2022-09-17T14:06:53;3.87;;;1.40;;
13075;SDS011;6604;52.484;13.330;2022-09-17T14:09:28;6.80;;;1.30;;
13075;SDS011;6604;52.484;13.330;2022-09-17T14:11:56;2.73;;;1.17;;
13075;SDS011;6604;52.484;13.330;2022-09-17T14:14:39;2.17;;;1.00;;
13075;SDS011;6604;52.484;13.330;2022-09-17T14:17:06;6.70;;;3.10;;
13075;SDS011;6604;52.484;13.330;2022-09-17T14:19:33;5.27;;;1.63;;
13075;SDS011;6604;52.484;13.330;2022-09-17T14:22:07;5.53;;;1.30;;
13075;SDS011;6604;52.484;13.330;2022-09-17T14:24:45;4.47;;;1.40;;
13075;SDS011;6604;52.484;13.330;2022-09-17T14:27:13;3.97;;;1.17;;
13075;SDS011;6604;52.484;13.330;2022-09-17T14:29:46;3.07;;;1.40;;
13075;SDS011;6604;52.484;13.330;2022-09-17T14:32:16;3.73;;;0.80;;
13075;SDS011;6604;52.484;13.330;2022-09-17T14:34:44;4.03;;;1.20;;
13075;SDS011;6604;52.484;13.330;2022-09-17T14:37:12;2.87;;;1.10;;
13075;SDS011;6604;52.484;13.330;2022-09-17T14:39:42;5.97;;;1.10;;
13075;SDS011;6604;52.484;13.330;2022-09-17T14:42:12;5.20;;;2.73;;
13075;SDS011;6604;52.484;13.330;2022-09-17T14:44:44;3.20;;;1.10;;
13075;SDS011;6604;52.484;13.330;2022-09-17T14:47:13;4.70;;;1.10;;
13075;SDS011;6604;52.484;13.330;2022-09-17T14:49:40;4.80;;;1.13;;
13075;SDS011;6604;52.484;13.330;2022-09-17T14:52:18;5.03;;;1.47;;
13075;SDS011;6604;52.484;13.330;2022-09-17T14:54:46;3.27;;;1.10;;
13075;SDS011;6604;52.484;13.330;2022-09-17T14:57:24;2.57;;;0.70;;
13075;SDS011;6604;52.484;13.330;2022-09-17T14:59:52;1.23;;;0.70;;
13075;SDS011;6604;52.484;13.330;2022-09-17T15:02:26;0.50;;;0.50;;
13075;SDS011;6604;52.484;13.330;2022-09-17T15:04:54;0.83;;;0.70;;
13075;SDS011;6604;52.484;13.330;2022-09-17T15:07:21;1.87;;;0.50;;
13075;SDS011;6604;52.484;13.330;2022-09-17T15:09:49;1.23;;;0.40;;
13075;SDS011;6604;52.484;13.330;2022-09-17T15:12:19;2.70;;;0.63;;
13075;SDS011;6604;52.484;13.330;2022-09-17T15:14:47;0.43;;;0.43;;
13075;SDS011;6604;52.484;13.330;2022-09-17T15:17:13;0.40;;;0.40;;
13075;SDS011;6604;52.484;13.330;2022-09-17T15:19:41;2.60;;;0.70;;
13075;SDS011;6604;52.484;13.330;2022-09-17T15:22:10;0.80;;;0.80;;
13075;SDS011;6604;52.484;13.330;2022-09-17T15:24:39;1.93;;;0.50;;
13075;SDS011;6604;52.484;13.330;2022-09-17T15:27:10;0.67;;;0.53;;
13075;SDS011;6604;52.484;13.330;2022-09-17T15:29:37;1.57;;;0.53;;
13075;SDS011;6604;52.484;13.330;2022-09-17T15:32:04;2.47;;;0.60;;
13075;SDS011;6604;52.484;13.330;2022-09-17T15:34:31;1.90;;;0.50;;
13075;SDS011;6604;52.484;13.330;2022-09-17T15:37:04;0.57;;;0.50;;
13075;SDS011;6604;52.484;13.330;2022-09-17T15:39:36;1.90;;;0.70;;
13075;SDS011;6604;52.484;13.330;2022-09-17T15:42:03;0.87;;;0.40;;
13075;SDS011;6604;52.484;13.330;2022-09-17T15:44:31;1.67;;;0.40;;
13075;SDS011;6604;52.484;13.330;2022-09-17T15:52:28;1.87;;;0.50;;
13075;SDS011;6604;52.484;13.330;2022-09-17T15:54:56;1.67;;;0.50;;
13075;SDS011;6604;52.484;13.330;2022-09-17T15:57:23;2.73;;;0.57;;
13075;SDS011;6604;52.484;13.330;2022-09-17T15:59:51;4.20;;;0.60;;
13075;SDS011;6604;52.484;13.330;2022-09-17T16:02:25;2.27;;;0.60;;
13075;SDS011;6604;52.484;13.330;2022-09-17T16:04:56;4.10;;;0.70;;
13075;SDS011;6604;52.484;13.330;2022-09-17T16:07:36;0.57;;;0.53;;
13075;SDS011;6604;52.484;13.330;2022-09-17T16:10:03;1.43;;;0.50;;
13075;SDS011;6604;52.484;13.330;2022-09-17T16:12:29;1.30;;;0.60;;
13075;SDS011;6604;52.484;13.330;2022-09-17T16:14:58;1.60;;;0.80;;
13075;SDS011;6604;52.484;13.330;2022-09-17T16:17:29;1.57;;;0.80;;
13075;SDS011;6604;52.484;13.330;2022-09-17T16:19:59;2.83;;;0.90;;
13075;SDS011;6604;52.484;13.330;2022-09-17T16:22:30;1.13;;;0.60;;
13075;SDS011;6604;52.484;13.330;2022-09-17T16:24:56;1.70;;;0.57;;
13075;SDS011;6604;52.484;13.330;2022-09-17T16:27:23;2.23;;;0.70;;
13075;SDS011;6604;52.484;13.330;2022-09-17T16:29:55;1.43;;;0.73;;
13075;SDS011;6604;52.484;13.330;2022-09-17T16:32:26;2.53;;;0.60;;
13075;SDS011;6604;52.484;13.330;2022-09-17T16:34:52;0.93;;;0.60;;
13075;SDS011;6604;52.484;13.330;2022-09-17T16:37:19;0.53;;;0.53;;
13075;SDS011;6604;52.484;13.330;2022-09-17T16:39:45;1.60;;;0.50;;
13075;SDS011;6604;52.484;13.330;2022-09-17T16:42:11;3.17;;;0.70;;
13075;SDS011;6604;52.484;13.330;2022-09-17T16:44:38;4.27;;;0.90;;
13075;SDS011;6604;52.484;13.330;2022-09-17T16:47:04;3.50;;;0.50;;
13075;SDS011;6604;52.484;13.330;2022-09-17T16:49:32;2.23;;;0.70;;
13075;SDS011;6604;52.484;13.330;2022-09-17T16:51:59;1.83;;;0.60;;
13075;SDS011;6604;52.484;13.330;2022-09-17T16:54:25;2.67;;;0.83;;
13075;SDS011;6604;52.484;13.330;2022-09-17T16:56:51;0.93;;;0.70;;
13075;SDS011;6604;52.484;13.330;2022-09-17T16:59:18;2.00;;;0.63;;
13075;SDS011;6604;52.484;13.330;2022-09-17T17:01:44;3.03;;;0.50;;
13075;SDS011;6604;52.484;13.330;2022-09-17T17:04:13;2.73;;;0.70;;
13075;SDS011;6604;52.484;13.330;2022-09-17T17:06:41;2.40;;;0.80;;
13075;SDS011;6604;52.484;13.330;2022-09-17T17:09:07;1.73;;;0.80;;
13075;SDS011;6604;52.484;13.330;2022-09-17T17:11:36;1.03;;;0.50;;
13075;SDS011;6604;52.484;13.330;2022-09-17T17:14:02;3.83;;;1.07;;
13075;SDS011;6604;52.484;13.330;2022-09-17T17:16:29;1.83;;;0.63;;
13075;SDS011;6604;52.484;13.330;2022-09-17T17:18:55;1.13;;;0.80;;
13075;SDS011;6604;52.484;13.330;2022-09-17T17:21:22;2.93;;;1.17;;
13075;SDS011;6604;52.484;13.330;2022-09-17T17:23:50;2.63;;;0.80;;
13075;SDS011;6604;52.484;13.330;2022-09-17T17:26:16;0.97;;;0.80;;
13075;SDS011;6604;52.484;13.330;2022-09-17T17:28:42;1.80;;;0.80;;
13075;SDS011;6604;52.484;13.330;2022-09-17T17:31:09;0.90;;;0.60;;
13075;SDS011;6604;52.484;13.330;2022-09-17T17:33:36;1.80;;;0.80;;
13075;SDS011;6604;52.484;13.330;2022-09-17T17:36:03;2.57;;;0.70;;
13075;SDS011;6604;52.484;13.330;2022-09-17T17:38:30;0.90;;;0.60;;
13075;SDS011;6604;52.484;13.330;2022-09-17T17:41:05;1.43;;;0.63;;
13075;SDS011;6604;52.484;13.330;2022-09-17T17:43:31;1.90;;;0.87;;
13075;SDS011;6604;52.484;13.330;2022-09-17T17:45:58;3.20;;;0.73;;
13075;SDS011;6604;52.484;13.330;2022-09-17T17:48:24;1.03;;;0.50;;
13075;SDS011;6604;52.484;13.330;2022-09-17T17:50:50;1.27;;;0.80;;
13075;SDS011;6604;52.484;13.330;2022-09-17T17:53:17;3.07;;;1.13;;
13075;SDS011;6604;52.484;13.330;2022-09-17T17:55:49;2.03;;;0.60;;
13075;SDS011;6604;52.484;13.330;2022-09-17T17:58:21;2.50;;;1.10;;
13075;SDS011;6604;52.484;13.330;2022-09-17T18:00:47;1.97;;;0.90;;
13075;SDS011;6604;52.484;13.330;2022-09-17T18:03:13;2.67;;;0.97;;
13075;SDS011;6604;52.484;13.330;2022-09-17T18:05:40;1.10;;;0.70;;
13075;SDS011;6604;52.484;13.330;2022-09-17T18:08:06;2.80;;;0.80;;
13075;SDS011;6604;52.484;13.330;2022-09-17T18:10:32;2.60;;;0.80;;
13075;SDS011;6604;52.484;13.330;2022-09-17T18:12:59;0.60;;;0.60;;
13075;SDS011;6604;52.484;13.330;2022-09-17T18:15:27;1.67;;;0.77;;
13075;SDS011;6604;52.484;13.330;2022-09-17T18:17:53;4.43;;;0.83;;
13075;SDS011;6604;52.484;13.330;2022-09-17T18:20:19;1.23;;;0.63;;
13075;SDS011;6604;52.484;13.330;2022-09-17T18:22:46;1.30;;;1.00;;
13075;SDS011;6604;52.484;13.330;2022-09-17T18:25:13;3.20;;;0.80;;
13075;SDS011;6604;52.484;13.330;2022-09-17T18:27:39;2.97;;;1.00;;
13075;SDS011;6604;52.484;13.330;2022-09-17T18:30:06;3.17;;;0.90;;
13075;SDS011;6604;52.484;13.330;2022-09-17T18:32:34;3.67;;;0.80;;
13075;SDS011;6604;52.484;13.330;2022-09-17T18:35:01;1.67;;;1.00;;
13075;SDS011;6604;52.484;13.330;2022-09-17T18:37:27;1.80;;;0.80;;
13075;SDS011;6604;52.484;13.330;2022-09-17T18:39:53;3.40;;;0.90;;
13075;SDS011;6604;52.484;13.330;2022-09-17T18:42:20;3.20;;;1.10;;
13075;SDS011;6604;52.484;13.330;2022-09-17T18:44:47;1.57;;;0.90;;
13075;SDS011;6604;52.484;13.330;2022-09-17T18:47:13;3.23;;;0.90;;
13075;SDS011;6604;52.484;13.330;2022-09-17T18:49:41;1.33;;;0.90;;
13075;SDS011;6604;52.484;13.330;2022-09-17T18:52:07;2.07;;;0.80;;
13075;SDS011;6604;52.484;13.330;2022-09-17T18:54:34;2.50;;;0.77;;
13075;SDS011;6604;52.484;13.330;2022-09-17T18:57:00;3.20;;;0.80;;
13075;SDS011;6604;52.484;13.330;2022-09-17T18:59:26;3.37;;;0.80;;
13075;SDS011;6604;52.484;13.330;2022-09-17T19:01:53;3.13;;;1.03;;
13075;SDS011;6604;52.484;13.330;2022-09-17T19:04:19;2.20;;;0.90;;
13075;SDS011;6604;52.484;13.330;2022-09-17T19:06:48;2.57;;;1.07;;
13075;SDS011;6604;52.484;13.330;2022-09-17T19:09:14;1.70;;;0.80;;
13075;SDS011;6604;52.484;13.330;2022-09-17T19:11:41;2.33;;;0.90;;
13075;SDS011;6604;52.484;13.330;2022-09-17T19:14:07;1.10;;;0.80;;
13075;SDS011;6604;52.484;13.330;2022-09-17T19:16:34;1.43;;;1.30;;
13075;SDS011;6604;52.484;13.330;2022-09-17T19:19:00;2.77;;;1.10;;
13075;SDS011;6604;52.484;13.330;2022-09-17T19:21:26;1.37;;;0.70;;
13075;SDS011;6604;52.484;13.330;2022-09-17T19:23:54;2.43;;;0.83;;
13075;SDS011;6604;52.484;13.330;2022-09-17T19:26:21;2.83;;;0.90;;
13075;SDS011;6604;52.484;13.330;2022-09-17T19:28:50;1.67;;;0.80;;
13075;SDS011;6604;52.484;13.330;2022-09-17T19:31:17;1.80;;;1.00;;
13075;SDS011;6604;52.484;13.330;2022-09-17T19:33:43;1.83;;;0.90;;
13075;SDS011;6604;52.484;13.330;2022-09-17T19:36:11;1.37;;;1.13;;
13075;SDS011;6604;52.484;13.330;2022-09-17T19:38:38;1.90;;;1.07;;
13075;SDS011;6604;52.484;13.330;2022-09-17T19:41:07;1.43;;;0.97;;
13075;SDS011;6604;52.484;13.330;2022-09-17T19:43:35;2.20;;;0.97;;
13075;SDS011;6604;52.484;13.330;2022-09-17T19:46:02;1.30;;;1.00;;
13075;SDS011;6604;52.484;13.330;2022-09-17T19:48:29;2.13;;;1.30;;
13075;SDS011;6604;52.484;13.330;2022-09-17T19:50:56;2.17;;;1.20;;
13075;SDS011;6604;52.484;13.330;2022-09-17T19:53:22;2.50;;;1.10;;
13075;SDS011;6604;52.484;13.330;2022-09-17T19:55:51;3.53;;;1.80;;
13075;SDS011;6604;52.484;13.330;2022-09-17T19:58:19;2.17;;;1.10;;
13075;SDS011;6604;52.484;13.330;2022-09-17T20:00:45;1.63;;;1.30;;
13075;SDS011;6604;52.484;13.330;2022-09-17T20:03:12;2.07;;;1.30;;
13075;SDS011;6604;52.484;13.330;2022-09-17T20:05:38;1.93;;;1.30;;
13075;SDS011;6604;52.484;13.330;2022-09-17T20:08:04;2.73;;;1.47;;
13075;SDS011;6604;52.484;13.330;2022-09-17T20:10:32;2.50;;;1.47;;
13075;SDS011;6604;52.484;13.330;2022-09-17T20:13:00;4.13;;;2.30;;
13075;SDS011;6604;52.484;13.330;2022-09-17T20:15:28;3.67;;;1.83;;
13075;SDS011;6604;52.484;13.330;2022-09-17T20:17:55;1.83;;;1.40;;
13075;SDS011;6604;52.484;13.330;2022-09-17T20:20:21;2.97;;;1.70;;
13075;SDS011;6604;52.484;13.330;2022-09-17T20:22:52;3.07;;;1.73;;
13075;SDS011;6604;52.484;13.330;2022-09-17T20:25:18;3.83;;;1.40;;
13075;SDS011;6604;52.484;13.330;2022-09-17T20:27:45;2.93;;;1.63;;
13075;SDS011;6604;52.484;13.330;2022-09-17T20:30:11;3.23;;;1.50;;
13075;SDS011;6604;52.484;13.330;2022-09-17T20:32:39;3.27;;;1.70;;
13075;SDS011;6604;52.484;13.330;2022-09-17T20:35:06;2.43;;;1.60;;
13075;SDS011;6604;52.484;13.330;2022-09-17T20:37:33;1.47;;;1.30;;
13075;SDS011;6604;52.484;13.330;2022-09-17T20:39:59;3.23;;;1.40;;
13075;SDS011;6604;52.484;13.330;2022-09-17T20:42:26;3.30;;;1.70;;
13075;SDS011;6604;52.484;13.330;2022-09-17T20:44:52;2.90;;;1.70;;
13075;SDS011;6604;52.484;13.330;2022-09-17T20:47:19;5.60;;;1.97;;
13075;SDS011;6604;52.484;13.330;2022-09-17T20:49:46;2.90;;;1.73;;
13075;SDS011;6604;52.484;13.330;2022-09-17T20:52:13;1.90;;;1.70;;
13075;SDS011;6604;52.484;13.330;2022-09-17T20:54:39;4.70;;;1.80;;
13075;SDS011;6604;52.484;13.330;2022-09-17T20:57:06;4.17;;;1.90;;
13075;SDS011;6604;52.484;13.330;2022-09-17T20:59:32;3.03;;;1.60;;
13075;SDS011;6604;52.484;13.330;2022-09-17T21:02:14;4.73;;;1.90;;
13075;SDS011;6604;52.484;13.330;2022-09-17T21:04:42;4.43;;;2.00;;
13075;SDS011;6604;52.484;13.330;2022-09-17T21:07:10;2.63;;;1.50;;
13075;SDS011;6604;52.484;13.330;2022-09-17T21:09:37;4.67;;;1.90;;
13075;SDS011;6604;52.484;13.330;2022-09-17T21:12:06;3.63;;;1.70;;
13075;SDS011;6604;52.484;13.330;2022-09-17T21:14:32;5.37;;;1.77;;
13075;SDS011;6604;52.484;13.330;2022-09-17T21:16:59;7.70;;;2.03;;
13075;SDS011;6604;52.484;13.330;2022-09-17T21:19:25;3.67;;;1.93;;
13075;SDS011;6604;52.484;13.330;2022-09-17T21:21:53;3.07;;;1.60;;
13075;SDS011;6604;52.484;13.330;2022-09-17T21:24:21;5.90;;;1.93;;
13075;SDS011;6604;52.484;13.330;2022-09-17T21:26:48;5.77;;;2.03;;
13075;SDS011;6604;52.484;13.330;2022-09-17T21:29:15;4.10;;;1.83;;
13075;SDS011;6604;52.484;13.330;2022-09-17T21:31:42;4.60;;;1.90;;
13075;SDS011;6604;52.484;13.330;2022-09-17T21:34:09;3.87;;;2.10;;
13075;SDS011;6604;52.484;13.330;2022-09-17T21:36:36;5.47;;;2.13;;
13075;SDS011;6604;52.484;13.330;2022-09-17T21:39:03;4.70;;;1.77;;
13075;SDS011;6604;52.484;13.330;2022-09-17T21:41:32;4.30;;;2.40;;
13075;SDS011;6604;52.484;13.330;2022-09-17T21:43:58;2.83;;;1.80;;
13075;SDS011;6604;52.484;13.330;2022-09-17T21:46:25;3.40;;;1.97;;
13075;SDS011;6604;52.484;13.330;2022-09-17T21:48:52;8.10;;;2.20;;
13075;SDS011;6604;52.484;13.330;2022-09-17T21:51:20;3.50;;;1.97;;
13075;SDS011;6604;52.484;13.330;2022-09-17T21:53:48;2.87;;;1.60;;
13075;SDS011;6604;52.484;13.330;2022-09-17T21:56:15;6.90;;;1.70;;
13075;SDS011;6604;52.484;13.330;2022-09-17T21:58:44;4.20;;;1.97;;
13075;SDS011;6604;52.484;13.330;2022-09-17T22:01:11;6.03;;;1.70;;
13075;SDS011;6604;52.484;13.330;2022-09-17T22:03:38;2.90;;;1.80;;
13075;SDS011;6604;52.484;13.330;2022-09-17T22:06:05;2.47;;;1.70;;
13075;SDS011;6604;52.484;13.330;2022-09-17T22:08:33;3.67;;;1.80;;
13075;SDS011;6604;52.484;13.330;2022-09-17T22:11:00;2.63;;;1.50;;
13075;SDS011;6604;52.484;13.330;2022-09-17T22:13:26;3.27;;;1.40;;
13075;SDS011;6604;52.484;13.330;2022-09-17T22:15:57;3.20;;;1.63;;
13075;SDS011;6604;52.484;13.330;2022-09-17T22:18:24;4.17;;;2.07;;
13075;SDS011;6604;52.484;13.330;2022-09-17T22:20:51;3.80;;;1.90;;
13075;SDS011;6604;52.484;13.330;2022-09-17T22:23:17;4.70;;;1.70;;
13075;SDS011;6604;52.484;13.330;2022-09-17T22:25:44;4.27;;;1.57;;
13075;SDS011;6604;52.484;13.330;2022-09-17T22:28:10;4.07;;;2.03;;
13075;SDS011;6604;52.484;13.330;2022-09-17T22:30:38;2.67;;;1.90;;
13075;SDS011;6604;52.484;13.330;2022-09-17T22:33:05;6.40;;;1.80;;
13075;SDS011;6604;52.484;13.330;2022-09-17T22:35:32;2.87;;;1.67;;
13075;SDS011;6604;52.484;13.330;2022-09-17T22:37:58;2.60;;;1.70;;
13075;SDS011;6604;52.484;13.330;2022-09-17T22:40:25;2.87;;;1.93;;
13075;SDS011;6604;52.484;13.330;2022-09-17T22:42:51;3.17;;;1.80;;
13075;SDS011;6604;52.484;13.330;2022-09-17T22:45:17;3.83;;;1.90;;
13075;SDS011;6604;52.484;13.330;2022-09-17T22:47:44;3.67;;;2.10;;
13075;SDS011;6604;52.484;13.330;2022-09-17T22:50:11;3.20;;;1.70;;
13075;SDS011;6604;52.484;13.330;2022-09-17T22:52:38;5.73;;;1.87;;
13075;SDS011;6604;52.484;13.330;2022-09-17T22:55:04;1.93;;;1.80;;
13075;SDS011;6604;52.484;13.330;2022-09-17T22:57:31;6.00;;;2.10;;
13075;SDS011;6604;52.484;13.330;2022-09-17T22:59:57;3.40;;;2.10;;
13075;SDS011;6604;52.484;13.330;2022-09-17T23:02:24;3.93;;;2.10;;
13075;SDS011;6604;52.484;13.330;2022-09-17T23:04:50;2.73;;;1.90;;
13075;SDS011;6604;52.484;13.330;2022-09-17T23:07:18;3.90;;;2.20;;